createdAt,value
2018-12-05T00:01:05.133Z,5.63
2018-12-05T00:06:07.366Z,8.07
2018-12-05T00:11:09.457Z,9.77
2018-12-05T00:16:11.671Z,10.37
2018-12-05T00:21:13.722Z,6.77
2018-12-05T00:26:15.824Z,8.13
2018-12-05T00:31:18.028Z,8.33
2018-12-05T00:36:20.099Z,5.17
2018-12-05T00:41:22.210Z,10.67
2018-12-05T00:46:24.288Z,6.00
2018-12-05T00:51:26.593Z,12.27
2018-12-05T00:56:28.659Z,6.70
2018-12-05T01:01:30.816Z,9.37
2018-12-05T01:06:33.150Z,7.10
2018-12-05T01:11:35.213Z,11.03
2018-12-05T01:16:37.667Z,6.97
2018-12-05T01:21:39.960Z,4.63
2018-12-05T01:26:42.056Z,3.40
2018-12-05T01:31:44.089Z,6.03
2018-12-05T01:36:46.290Z,7.40
2018-12-05T01:41:48.353Z,9.27
2018-12-05T01:46:50.545Z,11.93
2018-12-05T01:51:52.722Z,10.63
2018-12-05T01:56:54.803Z,6.30
2018-12-05T02:01:57.019Z,8.73
2018-12-05T02:06:59.331Z,12.40
2018-12-05T02:12:01.853Z,13.63
2018-12-05T02:17:04.070Z,13.33
2018-12-05T02:22:06.244Z,8.13
2018-12-05T02:27:08.423Z,9.43
2018-12-05T02:32:10.500Z,11.43
2018-12-05T02:37:12.571Z,16.90
2018-12-05T02:42:14.641Z,19.53
2018-12-05T02:47:16.847Z,15.83
2018-12-05T02:52:19.048Z,18.03
2018-12-05T02:57:21.136Z,20.63
2018-12-05T03:02:23.448Z,14.63
2018-12-05T03:07:25.533Z,14.17
2018-12-05T03:12:27.601Z,12.30
2018-12-05T03:17:29.672Z,21.47
2018-12-05T03:22:31.723Z,13.27
2018-12-05T03:27:33.780Z,21.07
2018-12-05T03:32:35.888Z,15.50
2018-12-05T03:37:37.969Z,19.70
2018-12-05T03:42:40.071Z,14.37
2018-12-05T03:47:42.253Z,23.50
2018-12-05T03:52:44.459Z,25.00
2018-12-05T03:57:46.553Z,23.70
2018-12-05T04:02:48.638Z,12.77
2018-12-05T04:07:50.714Z,30.33
2018-12-05T04:12:52.803Z,25.33
2018-12-05T04:17:54.867Z,17.40
2018-12-05T04:22:56.958Z,27.87
2018-12-05T04:27:59.135Z,37.03
2018-12-05T04:33:01.222Z,26.93
2018-12-05T04:38:03.575Z,23.30
2018-12-05T04:43:05.648Z,30.23
2018-12-05T04:48:07.748Z,19.57
2018-12-05T04:53:09.856Z,24.20
2018-12-05T04:58:12.025Z,26.53
2018-12-05T05:03:14.226Z,21.93
2018-12-05T05:08:16.293Z,22.63
2018-12-05T05:13:18.372Z,19.67
2018-12-05T05:18:20.544Z,13.87
2018-12-05T05:23:22.611Z,25.23
2018-12-05T05:28:24.699Z,20.93
2018-12-05T05:33:26.767Z,22.87
2018-12-05T05:38:28.872Z,10.23
2018-12-05T05:43:30.948Z,20.23
2018-12-05T05:48:33.017Z,19.80
2018-12-05T05:53:35.229Z,21.43
2018-12-05T05:58:37.308Z,23.70
2018-12-05T06:03:39.525Z,29.07
2018-12-05T06:08:41.608Z,30.17
2018-12-05T06:13:43.690Z,26.27
2018-12-05T06:18:45.876Z,22.67
2018-12-05T06:23:47.928Z,20.27
2018-12-05T06:28:50.112Z,20.47
2018-12-05T06:33:52.181Z,20.57
2018-12-05T06:38:54.247Z,19.63
2018-12-05T06:43:56.438Z,27.57
2018-12-05T06:48:58.623Z,21.67
2018-12-05T06:54:00.805Z,23.20
2018-12-05T06:59:02.897Z,19.60
2018-12-05T07:04:05.216Z,24.03
2018-12-05T07:09:08.441Z,24.80
2018-12-05T07:14:10.517Z,27.43
2018-12-05T07:19:12.698Z,19.50
2018-12-05T07:24:14.772Z,17.13
2018-12-05T07:29:16.989Z,24.37
2018-12-05T07:34:19.107Z,18.73
2018-12-05T07:39:21.166Z,17.20
2018-12-05T07:44:23.438Z,28.30
2018-12-05T07:49:25.525Z,23.90
2018-12-05T07:54:27.603Z,31.23
2018-12-05T07:59:29.684Z,30.63
2018-12-05T08:04:31.919Z,22.70
2018-12-05T08:09:34.028Z,33.87
2018-12-05T08:14:36.108Z,28.03
2018-12-05T08:19:38.307Z,22.90
2018-12-05T08:24:40.401Z,28.50
2018-12-05T08:29:42.572Z,19.13
2018-12-05T08:34:44.680Z,19.73
2018-12-05T08:39:46.800Z,24.17
2018-12-05T08:44:48.901Z,15.90
2018-12-05T08:49:51.014Z,16.03
2018-12-05T08:54:53.632Z,20.63
2018-12-05T08:59:55.709Z,21.53
2018-12-05T09:04:57.961Z,19.87
2018-12-05T09:10:00.142Z,23.17
2018-12-05T09:15:02.467Z,24.83
2018-12-05T09:20:05.313Z,20.50
2018-12-05T09:25:07.622Z,16.13
2018-12-05T09:30:09.920Z,18.47
2018-12-05T09:35:12.109Z,22.93
2018-12-05T09:40:14.402Z,29.63
2018-12-05T09:45:16.504Z,14.67
2018-12-05T09:50:18.841Z,16.40
2018-12-05T09:55:20.955Z,18.40
2018-12-05T10:00:23.053Z,13.87
2018-12-05T10:05:25.173Z,19.03
2018-12-05T10:10:27.256Z,25.70
2018-12-05T10:15:29.459Z,21.73
2018-12-05T10:20:31.733Z,23.40
2018-12-05T10:25:33.925Z,18.63
2018-12-05T10:30:36.037Z,19.83
2018-12-05T10:35:38.131Z,29.03
2018-12-05T10:40:40.263Z,22.40
2018-12-05T10:45:42.313Z,25.57
2018-12-05T10:50:44.500Z,28.47
2018-12-05T10:55:46.715Z,26.87
2018-12-05T11:00:54.804Z,19.97
2018-12-05T11:06:02.732Z,22.77
2018-12-05T11:11:10.613Z,23.80
2018-12-05T11:16:18.284Z,23.00
2018-12-05T11:21:26.197Z,21.67
2018-12-05T11:26:31.366Z,20.50
2018-12-05T11:31:33.467Z,28.23
2018-12-05T11:36:35.572Z,23.30
2018-12-05T11:41:38.021Z,29.83
2018-12-05T11:46:40.129Z,29.27
2018-12-05T11:51:42.352Z,34.03
2018-12-05T11:56:44.448Z,31.30
2018-12-05T12:01:46.450Z,32.30
2018-12-05T12:06:48.593Z,30.60
2018-12-05T12:11:51.138Z,26.87
2018-12-05T12:16:53.443Z,27.70
2018-12-05T12:21:55.658Z,31.73
2018-12-05T12:26:57.736Z,29.33
2018-12-05T12:31:59.929Z,34.80
2018-12-05T12:37:02.085Z,30.40
2018-12-05T12:42:04.264Z,24.10
2018-12-05T12:47:07.576Z,23.23
2018-12-05T12:52:09.671Z,39.50
2018-12-05T12:57:11.765Z,33.83
2018-12-05T13:02:13.972Z,38.47
2018-12-05T13:07:16.103Z,35.40
2018-12-05T13:12:23.978Z,35.90
2018-12-05T13:17:26.214Z,48.57
2018-12-05T13:22:28.391Z,38.33
2018-12-05T13:27:30.633Z,57.73
2018-12-05T13:32:32.705Z,38.53
2018-12-05T13:37:35.000Z,41.63
2018-12-05T13:42:37.208Z,35.63
2018-12-05T13:47:39.441Z,36.73
2018-12-05T13:52:41.664Z,44.50
2018-12-05T13:57:44.080Z,52.83
2018-12-05T14:02:46.161Z,47.73
2018-12-05T14:07:48.275Z,48.23
2018-12-05T14:12:50.382Z,31.63
2018-12-05T14:17:52.433Z,40.07
2018-12-05T14:22:54.658Z,45.10
2018-12-05T14:27:56.858Z,39.10
2018-12-05T14:32:58.953Z,48.67
2018-12-05T14:38:01.176Z,40.93
2018-12-05T14:43:03.400Z,49.73
2018-12-05T14:48:05.646Z,40.10
2018-12-05T14:53:07.799Z,43.13
2018-12-05T14:58:09.889Z,52.60
2018-12-05T15:03:11.984Z,44.80
2018-12-05T15:08:14.112Z,45.15
2018-12-05T15:13:16.203Z,45.67
2018-12-05T15:18:18.332Z,53.85
2018-12-05T15:23:20.469Z,54.60
2018-12-05T15:28:22.709Z,51.80
2018-12-05T15:33:24.806Z,48.73
2018-12-05T15:38:26.900Z,33.87
2018-12-05T15:43:29.028Z,37.10
2018-12-05T15:48:31.155Z,32.67
2018-12-05T15:53:33.316Z,40.23
2018-12-05T15:58:35.424Z,52.43
2018-12-05T16:03:43.149Z,41.60
2018-12-05T16:08:41.716Z,49.73
2018-12-05T16:13:44.075Z,40.03
2018-12-05T16:18:46.198Z,35.77
2018-12-05T16:23:48.334Z,37.27
2018-12-05T16:28:50.425Z,28.47
2018-12-05T16:33:52.553Z,47.60
2018-12-05T16:38:54.693Z,36.60
2018-12-05T16:43:56.966Z,30.97
2018-12-05T16:48:59.078Z,45.17
2018-12-05T16:54:01.199Z,34.93
2018-12-05T16:59:03.316Z,25.50
2018-12-05T17:04:05.554Z,35.30
2018-12-05T17:09:07.983Z,26.90
2018-12-05T17:14:10.137Z,33.00
2018-12-05T17:19:12.273Z,33.37
2018-12-05T17:24:14.401Z,45.73
2018-12-05T17:29:16.528Z,36.93
2018-12-05T17:34:18.749Z,29.30
2018-12-05T17:39:21.117Z,27.40
2018-12-05T17:44:23.226Z,34.60
2018-12-05T17:49:25.322Z,25.50
2018-12-05T17:54:27.568Z,38.43
2018-12-05T17:59:29.694Z,23.33
2018-12-05T18:04:31.839Z,26.17
2018-12-05T18:09:34.000Z,25.10
2018-12-05T18:14:36.113Z,24.87
2018-12-05T18:19:38.223Z,21.73
2018-12-05T18:24:40.477Z,21.63
2018-12-05T18:29:42.581Z,30.10
2018-12-05T18:34:44.765Z,19.83
2018-12-05T18:39:46.983Z,31.90
2018-12-05T18:44:49.127Z,25.90
2018-12-05T18:49:51.226Z,23.40
2018-12-05T18:54:53.569Z,23.87
2018-12-05T19:00:01.341Z,23.43
2018-12-05T19:05:00.073Z,17.57
2018-12-05T19:10:03.475Z,22.83
2018-12-05T19:15:06.082Z,24.00
2018-12-05T19:20:08.384Z,18.43
2018-12-05T19:25:11.018Z,17.83
2018-12-05T19:30:13.267Z,12.17
2018-12-05T19:35:15.447Z,20.07
2018-12-05T19:40:17.828Z,13.17
2018-12-05T19:45:21.852Z,14.17
2018-12-05T19:50:26.858Z,9.73
2018-12-05T19:55:29.956Z,11.43
2018-12-05T20:00:32.411Z,19.40
2018-12-05T20:05:37.471Z,18.90
2018-12-05T20:10:43.242Z,16.03
2018-12-05T20:15:48.317Z,12.13
2018-12-05T20:20:53.722Z,18.40
2018-12-05T20:25:59.616Z,11.23
2018-12-05T20:31:05.291Z,10.53
2018-12-05T20:36:10.630Z,11.53
2018-12-05T20:41:14.201Z,11.13
2018-12-05T20:46:19.400Z,10.70
2018-12-05T20:51:22.357Z,5.70
2018-12-05T20:56:27.521Z,9.70
2018-12-05T21:01:32.599Z,14.93
2018-12-05T21:06:36.365Z,7.10
2018-12-05T21:11:39.520Z,12.83
2018-12-05T21:16:42.267Z,10.13
2018-12-05T21:21:44.601Z,6.97
2018-12-05T21:26:46.811Z,6.60
2018-12-05T21:31:49.075Z,8.37
2018-12-05T21:36:51.171Z,6.23
2018-12-05T21:41:54.025Z,18.70
2018-12-05T21:46:56.374Z,15.93
2018-12-05T21:51:58.609Z,12.43
2018-12-05T21:57:00.726Z,13.83
2018-12-05T22:02:02.848Z,11.87
2018-12-05T22:07:05.082Z,10.53
2018-12-05T22:12:07.185Z,14.83
2018-12-05T22:17:09.276Z,11.40
2018-12-05T22:22:11.387Z,16.90
2018-12-05T22:27:13.493Z,17.63
2018-12-05T22:32:15.671Z,9.70
2018-12-05T22:37:17.883Z,11.53
2018-12-05T22:42:20.015Z,18.43
2018-12-05T22:47:22.078Z,17.43
2018-12-05T22:52:24.295Z,15.30
2018-12-05T22:57:26.396Z,21.90
2018-12-05T23:02:28.592Z,15.20
2018-12-05T23:07:30.707Z,21.63
2018-12-05T23:12:32.848Z,19.83
2018-12-05T23:17:34.943Z,13.43
2018-12-05T23:22:37.294Z,15.07
2018-12-05T23:27:39.494Z,14.70
2018-12-05T23:32:41.581Z,21.13
2018-12-05T23:37:44.097Z,14.40
2018-12-05T23:42:47.717Z,13.80
2018-12-05T23:47:49.793Z,15.27
2018-12-05T23:52:51.865Z,22.00
2018-12-05T23:57:54.027Z,19.90
